createdAt,value
2023-04-08T00:00:55.695Z,4.90
2023-04-08T00:03:23.108Z,5.30
2023-04-08T00:05:50.501Z,5.00
2023-04-08T00:08:20.317Z,5.40
2023-04-08T00:10:47.589Z,5.00
2023-04-08T00:13:15.175Z,5.00
2023-04-08T00:15:42.804Z,5.00
2023-04-08T00:18:10.099Z,4.70
2023-04-08T00:20:37.327Z,5.10
2023-04-08T00:23:04.495Z,4.90
2023-04-08T00:25:32.137Z,4.90
2023-04-08T00:27:59.350Z,4.90
2023-04-08T00:30:28.250Z,5.10
2023-04-08T00:32:55.817Z,4.70
2023-04-08T00:35:23.251Z,5.00
2023-04-08T00:37:50.495Z,4.80
2023-04-08T00:40:17.720Z,5.00
2023-04-08T00:42:44.912Z,4.90
2023-04-08T00:45:12.278Z,5.10
2023-04-08T00:47:39.899Z,5.10
2023-04-08T00:50:12.832Z,5.00
2023-04-08T00:52:40.065Z,5.00
2023-04-08T00:55:07.836Z,5.20
2023-04-08T00:57:35.359Z,4.90
2023-04-08T01:00:09.679Z,5.00
2023-04-08T01:03:11.481Z,5.00
2023-04-08T01:06:04.772Z,5.00
2023-04-08T01:08:36.146Z,5.10
2023-04-08T01:11:05.991Z,5.00
2023-04-08T01:13:39.841Z,4.70
2023-04-08T01:16:12.884Z,4.50
2023-04-08T01:18:43.532Z,4.90
2023-04-08T01:21:15.645Z,4.40
2023-04-08T01:24:18.346Z,5.00
2023-04-08T01:26:46.300Z,4.70
2023-04-08T01:29:16.479Z,4.70
2023-04-08T01:31:46.018Z,5.00
2023-04-08T01:34:15.909Z,4.70
2023-04-08T01:36:46.903Z,4.80
2023-04-08T01:39:17.612Z,4.80
2023-04-08T01:41:46.919Z,4.60
2023-04-08T01:44:16.540Z,4.80
2023-04-08T01:46:44.516Z,4.80
2023-04-08T01:49:12.483Z,4.50
2023-04-08T01:51:41.051Z,4.70
2023-04-08T01:54:08.395Z,4.70
2023-04-08T01:56:41.835Z,4.60
2023-04-08T01:59:16.003Z,4.50
2023-04-08T02:01:46.664Z,4.40
2023-04-08T02:04:14.123Z,4.70
2023-04-08T02:06:41.548Z,4.70
2023-04-08T02:09:08.944Z,4.50
2023-04-08T02:11:36.158Z,4.70
2023-04-08T02:14:03.532Z,4.60
2023-04-08T02:16:59.223Z,4.60
2023-04-08T02:19:35.979Z,4.60
2023-04-08T02:22:14.553Z,4.60
2023-04-08T02:24:43.030Z,4.80
2023-04-08T02:27:11.669Z,4.80
2023-04-08T02:29:42.107Z,4.70
2023-04-08T02:32:12.993Z,4.50
2023-04-08T02:34:42.205Z,4.40
2023-04-08T02:37:11.579Z,4.80
2023-04-08T02:39:38.786Z,4.90
2023-04-08T02:42:11.422Z,4.20
2023-04-08T02:44:39.205Z,4.70
2023-04-08T02:47:06.468Z,4.40
2023-04-08T02:49:33.800Z,4.50
2023-04-08T02:52:01.066Z,4.30
2023-04-08T02:54:28.204Z,4.60
2023-04-08T02:56:55.406Z,4.50
2023-04-08T02:59:22.627Z,4.40
2023-04-08T03:01:49.957Z,4.30
2023-04-08T03:04:17.247Z,3.90
2023-04-08T03:06:44.457Z,4.70
2023-04-08T03:09:11.619Z,4.60
2023-04-08T03:11:38.853Z,4.60
2023-04-08T03:14:06.001Z,4.70
2023-04-08T03:16:33.237Z,4.60
2023-04-08T03:19:00.879Z,4.70
2023-04-08T03:21:28.116Z,4.60
2023-04-08T03:23:55.514Z,4.70
2023-04-08T03:26:25.570Z,4.70
2023-04-08T03:28:53.440Z,4.60
2023-04-08T03:31:23.751Z,4.40
2023-04-08T03:33:51.264Z,4.60
2023-04-08T03:36:18.449Z,4.60
2023-04-08T03:38:45.991Z,4.30
2023-04-08T03:41:13.156Z,4.20
2023-04-08T03:43:40.297Z,4.20
2023-04-08T03:46:07.549Z,4.40
2023-04-08T03:48:34.714Z,4.20
2023-04-08T03:51:04.767Z,4.20
2023-04-08T03:53:31.900Z,4.30
2023-04-08T03:55:59.890Z,4.20
2023-04-08T03:58:27.066Z,4.20
2023-04-08T04:00:57.704Z,4.20
2023-04-08T04:03:25.038Z,4.50
2023-04-08T04:05:52.483Z,4.20
2023-04-08T04:08:19.738Z,4.10
2023-04-08T04:10:46.898Z,4.10
2023-04-08T04:13:14.063Z,3.90
2023-04-08T04:15:41.807Z,4.30
2023-04-08T04:18:09.353Z,4.10
2023-04-08T04:20:40.592Z,4.30
2023-04-08T04:23:07.834Z,4.20
2023-04-08T04:25:35.076Z,4.30
2023-04-08T04:28:03.408Z,4.30
2023-04-08T04:30:30.520Z,4.20
2023-04-08T04:32:57.958Z,4.00
2023-04-08T04:35:25.150Z,4.00
2023-04-08T04:37:52.896Z,4.20
2023-04-08T04:40:20.515Z,4.10
2023-04-08T04:42:47.694Z,4.00
2023-04-08T04:45:15.208Z,4.00
2023-04-08T04:47:42.412Z,4.10
2023-04-08T04:50:10.329Z,4.30
2023-04-08T04:52:37.593Z,4.20
2023-04-08T04:55:05.201Z,4.30
2023-04-08T04:57:32.416Z,4.20
2023-04-08T05:00:04.000Z,4.60
2023-04-08T05:02:32.544Z,4.40
2023-04-08T05:04:59.929Z,4.20
2023-04-08T05:07:27.153Z,4.00
2023-04-08T05:09:57.687Z,5.40
2023-04-08T05:12:24.936Z,4.10
2023-04-08T05:14:52.053Z,4.30
2023-04-08T05:17:19.304Z,4.30
2023-04-08T05:19:46.554Z,4.50
2023-04-08T05:22:13.850Z,4.10
2023-04-08T05:24:45.644Z,4.20
2023-04-08T05:27:13.055Z,4.20
2023-04-08T05:29:40.168Z,4.20
2023-04-08T05:32:07.361Z,4.50
2023-04-08T05:34:34.604Z,4.30
2023-04-08T05:37:01.800Z,4.60
2023-04-08T05:39:29.060Z,4.20
2023-04-08T05:41:56.229Z,4.40
2023-04-08T05:44:23.399Z,4.40
2023-04-08T05:46:50.617Z,4.00
2023-04-08T05:49:18.164Z,4.30
2023-04-08T05:51:45.636Z,4.30
2023-04-08T05:54:13.190Z,4.70
2023-04-08T05:56:42.953Z,4.60
2023-04-08T05:59:10.111Z,4.40
2023-04-08T06:01:37.301Z,4.70
2023-04-08T06:04:04.873Z,4.80
2023-04-08T06:06:32.160Z,4.60
2023-04-08T06:08:59.382Z,4.60
2023-04-08T06:11:26.687Z,4.90
2023-04-08T06:13:53.871Z,4.80
2023-04-08T06:16:21.450Z,4.70
2023-04-08T06:18:49.303Z,4.80
2023-04-08T06:21:16.984Z,4.90
2023-04-08T06:23:46.734Z,5.00
2023-04-08T06:26:14.066Z,5.20
2023-04-08T06:28:44.748Z,4.90
2023-04-08T06:31:12.188Z,4.80
2023-04-08T06:33:41.934Z,4.60
2023-04-08T06:36:11.893Z,4.90
2023-04-08T06:38:39.493Z,4.90
2023-04-08T06:41:08.836Z,4.80
2023-04-08T06:43:38.038Z,4.90
2023-04-08T06:46:08.389Z,4.50
2023-04-08T06:48:37.820Z,5.20
2023-04-08T06:51:05.517Z,5.20
2023-04-08T06:53:33.632Z,4.90
2023-04-08T06:56:01.056Z,5.10
2023-04-08T06:58:28.557Z,5.20
2023-04-08T07:00:56.654Z,5.20
2023-04-08T07:03:24.362Z,5.40
2023-04-08T07:05:53.711Z,5.40
2023-04-08T07:08:20.986Z,5.60
2023-04-08T07:10:48.413Z,5.60
2023-04-08T07:13:15.810Z,5.30
2023-04-08T07:15:45.502Z,5.40
2023-04-08T07:18:14.030Z,5.40
2023-04-08T07:20:42.121Z,5.50
2023-04-08T07:23:11.820Z,5.50
2023-04-08T07:25:39.120Z,5.60
2023-04-08T07:28:06.532Z,5.60
2023-04-08T07:30:33.812Z,5.60
2023-04-08T07:33:01.382Z,5.60
2023-04-08T07:35:32.148Z,5.40
2023-04-08T07:38:00.574Z,5.60
2023-04-08T07:40:29.985Z,5.70
2023-04-08T07:42:57.248Z,5.80
2023-04-08T07:45:25.962Z,5.80
2023-04-08T07:47:53.303Z,5.80
2023-04-08T07:51:08.110Z,5.70
2023-04-08T07:53:28.688Z,5.90
2023-04-08T07:55:56.028Z,6.00
2023-04-08T07:58:24.056Z,6.30
2023-04-08T08:00:51.699Z,6.30
2023-04-08T08:03:19.030Z,6.00
2023-04-08T08:05:51.122Z,6.30
2023-04-08T08:08:21.785Z,6.50
2023-04-08T08:10:53.501Z,6.80
2023-04-08T08:13:22.258Z,6.90
2023-04-08T08:15:53.968Z,7.00
2023-04-08T08:18:21.687Z,6.90
2023-04-08T08:20:48.882Z,6.90
2023-04-08T08:23:16.619Z,6.70
2023-04-08T08:25:46.793Z,7.00
2023-04-08T08:28:14.216Z,7.10
2023-04-08T08:30:47.353Z,7.20
2023-04-08T08:33:22.736Z,7.30
2023-04-08T08:35:50.090Z,7.40
2023-04-08T08:38:18.015Z,7.60
2023-04-08T08:40:46.208Z,7.70
2023-04-08T08:43:23.420Z,7.90
2023-04-08T08:45:51.101Z,7.70
2023-04-08T08:48:18.508Z,7.70
2023-04-08T08:50:46.119Z,7.60
2023-04-08T08:53:16.448Z,7.50
2023-04-08T08:56:13.555Z,7.40
2023-04-08T08:58:31.737Z,7.50
2023-04-08T09:00:59.283Z,7.40
2023-04-08T09:03:30.955Z,7.40
2023-04-08T09:06:04.003Z,7.60
2023-04-08T09:08:39.014Z,7.30
2023-04-08T09:11:17.183Z,7.30
2023-04-08T09:13:48.245Z,7.40
2023-04-08T09:16:18.465Z,7.40
2023-04-08T09:18:49.318Z,7.10
2023-04-08T09:21:18.394Z,7.00
2023-04-08T09:23:52.163Z,7.30
2023-04-08T09:26:23.087Z,7.40
2023-04-08T09:29:18.228Z,7.30
2023-04-08T09:32:01.588Z,7.20
2023-04-08T09:34:34.835Z,6.80
2023-04-08T09:37:04.555Z,6.90
2023-04-08T09:39:32.352Z,7.00
2023-04-08T09:42:01.796Z,7.20
2023-04-08T09:44:32.523Z,7.00
2023-04-08T09:47:19.140Z,7.10
2023-04-08T09:50:02.468Z,7.10
2023-04-08T09:52:46.229Z,6.70
2023-04-08T09:55:14.707Z,6.90
2023-04-08T09:57:51.378Z,7.20
2023-04-08T10:00:19.853Z,6.80
2023-04-08T10:03:06.714Z,6.90
2023-04-08T10:05:39.782Z,7.00
2023-04-08T10:08:08.259Z,7.20
2023-04-08T10:10:41.605Z,7.10
2023-04-08T10:13:09.805Z,7.20
2023-04-08T10:15:39.738Z,7.50
2023-04-08T10:18:10.060Z,7.20
2023-04-08T10:20:37.442Z,7.30
2023-04-08T10:23:13.504Z,7.30
2023-04-08T10:25:46.627Z,7.30
2023-04-08T10:28:19.565Z,7.50
2023-04-08T10:30:54.234Z,7.40
2023-04-08T10:33:32.922Z,7.60
2023-04-08T10:36:22.741Z,7.20
2023-04-08T10:38:50.128Z,7.50
2023-04-08T10:41:26.056Z,7.50
2023-04-08T10:43:54.021Z,7.50
2023-04-08T10:46:23.170Z,7.50
2023-04-08T10:49:11.110Z,7.50
2023-04-08T10:51:39.974Z,7.30
2023-04-08T10:54:20.140Z,7.70
2023-04-08T10:56:53.695Z,7.70
2023-04-08T10:59:39.774Z,7.60
2023-04-08T11:02:17.300Z,7.80
2023-04-08T11:04:54.684Z,7.90
2023-04-08T11:07:21.970Z,7.90
2023-04-08T11:09:52.567Z,7.80
2023-04-08T11:12:27.791Z,7.80
2023-04-08T11:14:55.259Z,7.60
2023-04-08T11:17:25.262Z,7.80
2023-04-08T11:19:58.010Z,7.60
2023-04-08T11:22:25.451Z,8.00
2023-04-08T11:24:53.389Z,8.10
2023-04-08T11:27:23.190Z,8.10
2023-04-08T11:30:04.608Z,8.30
2023-04-08T11:32:32.335Z,8.30
2023-04-08T11:35:06.176Z,8.20
2023-04-08T11:37:41.606Z,8.30
2023-04-08T11:40:13.675Z,8.40
2023-04-08T11:42:41.135Z,8.50
2023-04-08T11:45:14.146Z,8.60
2023-04-08T11:47:42.024Z,8.70
2023-04-08T11:50:11.378Z,8.60
2023-04-08T11:52:50.607Z,8.50
2023-04-08T11:55:30.671Z,8.30
2023-04-08T11:58:04.345Z,8.50
2023-04-08T12:00:33.213Z,8.20
2023-04-08T12:03:11.194Z,8.00
2023-04-08T12:05:42.506Z,8.00
2023-04-08T12:08:12.916Z,8.00
2023-04-08T12:10:46.010Z,8.10
2023-04-08T12:13:13.334Z,8.10
2023-04-08T12:15:40.763Z,8.10
2023-04-08T12:18:12.900Z,8.20
2023-04-08T12:20:42.999Z,8.10
2023-04-08T12:23:10.579Z,8.00
2023-04-08T12:25:37.938Z,8.00
2023-04-08T12:28:10.357Z,8.00
2023-04-08T12:30:38.458Z,8.00
2023-04-08T12:33:06.657Z,8.30
2023-04-08T12:35:34.182Z,8.10
2023-04-08T12:38:02.241Z,7.80
2023-04-08T12:40:32.154Z,7.90
2023-04-08T12:43:02.646Z,8.30
2023-04-08T12:45:32.623Z,8.00
2023-04-08T12:47:59.996Z,8.10
2023-04-08T12:50:27.371Z,8.10
2023-04-08T12:52:58.957Z,8.20
2023-04-08T12:55:28.267Z,8.00
2023-04-08T12:57:58.049Z,7.90
2023-04-08T13:00:28.507Z,7.90
2023-04-08T13:02:58.601Z,8.10
2023-04-08T13:05:39.841Z,8.10
2023-04-08T13:08:13.543Z,8.00
2023-04-08T13:10:53.736Z,8.20
2023-04-08T13:13:20.932Z,8.20
2023-04-08T13:15:49.217Z,8.10
2023-04-08T13:18:17.131Z,8.20
2023-04-08T13:20:44.679Z,8.20
2023-04-08T13:23:12.335Z,8.50
2023-04-08T13:25:39.661Z,8.20
2023-04-08T13:28:09.578Z,8.50
2023-04-08T13:30:36.924Z,8.10
2023-04-08T13:33:04.805Z,8.00
2023-04-08T13:35:32.335Z,8.20
2023-04-08T13:38:02.381Z,8.00
2023-04-08T13:40:30.498Z,8.30
2023-04-08T13:42:58.318Z,8.30
2023-04-08T13:45:33.048Z,8.00
2023-04-08T13:48:02.868Z,8.00
2023-04-08T13:50:30.764Z,8.00
2023-04-08T13:52:57.871Z,7.90
2023-04-08T13:55:25.113Z,7.90
2023-04-08T13:57:52.510Z,7.80
2023-04-08T14:00:22.618Z,7.80
2023-04-08T14:02:53.463Z,7.70
2023-04-08T14:05:24.995Z,7.50
2023-04-08T14:07:52.143Z,7.30
2023-04-08T14:10:20.344Z,7.60
2023-04-08T14:12:47.730Z,7.40
2023-04-08T14:15:15.046Z,7.40
2023-04-08T14:17:42.813Z,7.40
2023-04-08T14:20:10.550Z,7.20
2023-04-08T14:22:37.693Z,7.00
2023-04-08T14:25:05.402Z,6.80
2023-04-08T14:27:35.573Z,7.00
2023-04-08T14:30:03.187Z,7.30
2023-04-08T14:32:30.521Z,7.30
2023-04-08T14:34:58.744Z,7.10
2023-04-08T14:37:26.053Z,7.10
2023-04-08T14:39:53.254Z,7.00
2023-04-08T14:42:21.081Z,7.00
2023-04-08T14:44:48.497Z,6.90
2023-04-08T14:47:16.006Z,6.90
2023-04-08T14:49:43.311Z,6.90
2023-04-08T14:52:11.649Z,6.90
2023-04-08T14:54:41.769Z,6.80
2023-04-08T14:57:09.078Z,6.60
2023-04-08T14:59:37.032Z,6.60
2023-04-08T15:02:04.398Z,6.60
2023-04-08T15:04:31.764Z,6.50
2023-04-08T15:07:00.150Z,6.90
2023-04-08T15:09:27.458Z,6.50
2023-04-08T15:11:55.877Z,6.80
2023-04-08T15:14:23.439Z,6.70
2023-04-08T15:16:56.392Z,6.90
2023-04-08T15:19:23.863Z,6.70
2023-04-08T15:21:51.325Z,6.70
2023-04-08T15:24:19.847Z,6.30
2023-04-08T15:26:47.190Z,6.40
2023-04-08T15:29:15.704Z,6.90
2023-04-08T15:31:43.149Z,6.90
2023-04-08T15:34:11.588Z,6.90
2023-04-08T15:36:39.810Z,6.90
2023-04-08T15:39:07.265Z,6.60
2023-04-08T15:41:34.451Z,7.10
2023-04-08T15:44:13.281Z,6.80
2023-04-08T15:46:40.647Z,6.70
2023-04-08T15:49:08.057Z,6.60
2023-04-08T15:51:35.299Z,6.50
2023-04-08T15:54:03.046Z,6.50
2023-04-08T15:56:36.944Z,6.60
2023-04-08T15:59:06.790Z,6.90
2023-04-08T16:01:35.322Z,6.90
2023-04-08T16:04:02.697Z,6.70
2023-04-08T16:06:31.271Z,6.60
2023-04-08T16:09:08.726Z,6.80
2023-04-08T16:11:45.274Z,6.50
2023-04-08T16:14:12.990Z,6.50
2023-04-08T16:16:40.956Z,6.90
2023-04-08T16:19:08.510Z,6.70
2023-04-08T16:21:36.244Z,6.60
2023-04-08T16:24:05.378Z,6.20
2023-04-08T16:26:35.845Z,6.80
2023-04-08T16:29:05.664Z,6.60
2023-04-08T16:31:38.746Z,6.30
2023-04-08T16:34:06.222Z,6.60
2023-04-08T16:36:45.635Z,6.60
2023-04-08T16:39:19.045Z,6.70
2023-04-08T16:42:07.448Z,6.40
2023-04-08T16:44:46.067Z,6.50
2023-04-08T16:47:16.452Z,6.50
2023-04-08T16:49:48.973Z,6.50
2023-04-08T16:52:23.955Z,6.60
2023-04-08T16:54:54.208Z,6.70
2023-04-08T16:57:30.647Z,6.40
2023-04-08T16:59:58.017Z,6.40
2023-04-08T17:02:30.987Z,6.40
2023-04-08T17:05:01.842Z,6.40
2023-04-08T17:07:29.638Z,6.40
2023-04-08T17:10:12.639Z,6.40
2023-04-08T17:12:40.960Z,6.50
2023-04-08T17:15:11.172Z,6.80
2023-04-08T17:17:39.088Z,6.40
2023-04-08T17:20:08.471Z,6.40
2023-04-08T17:22:36.589Z,6.40
2023-04-08T17:25:04.195Z,6.40
2023-04-08T17:27:31.652Z,6.40
2023-04-08T17:30:01.541Z,6.40
2023-04-08T17:32:28.986Z,6.40
2023-04-08T17:34:56.571Z,6.30
2023-04-08T17:37:23.754Z,6.30
2023-04-08T17:39:51.845Z,6.10
2023-04-08T17:42:26.632Z,6.40
2023-04-08T17:44:55.813Z,6.30
2023-04-08T17:47:23.543Z,5.90
2023-04-08T17:49:57.009Z,6.30
2023-04-08T17:52:31.917Z,6.50
2023-04-08T17:55:00.702Z,6.30
2023-04-08T17:57:30.942Z,6.20
2023-04-08T17:59:58.371Z,6.20
2023-04-08T18:02:30.641Z,6.40
2023-04-08T18:05:00.857Z,6.10
2023-04-08T18:07:28.445Z,6.30
2023-04-08T18:09:55.816Z,6.10
2023-04-08T18:12:28.322Z,6.40
2023-04-08T18:14:55.905Z,6.10
2023-04-08T18:17:23.295Z,5.90
2023-04-08T18:19:50.806Z,6.00
2023-04-08T18:22:18.380Z,6.30
2023-04-08T18:24:45.643Z,5.90
2023-04-08T18:27:13.091Z,6.10
2023-04-08T18:29:42.300Z,6.20
2023-04-08T18:32:12.000Z,6.00
2023-04-08T18:34:41.866Z,6.20
2023-04-08T18:37:11.028Z,6.20
2023-04-08T18:39:41.969Z,6.10
2023-04-08T18:42:09.634Z,5.80
2023-04-08T18:44:37.460Z,6.10
2023-04-08T18:47:07.395Z,5.50
2023-04-08T18:49:35.290Z,6.10
2023-04-08T18:52:03.582Z,5.80
2023-04-08T18:54:31.172Z,5.70
2023-04-08T18:56:58.904Z,5.90
2023-04-08T18:59:28.511Z,6.10
2023-04-08T19:01:59.566Z,6.00
2023-04-08T19:04:27.523Z,6.00
2023-04-08T19:06:54.963Z,5.70
2023-04-08T19:09:24.741Z,5.60
2023-04-08T19:11:55.202Z,5.40
2023-04-08T19:14:30.765Z,6.10
2023-04-08T19:16:58.134Z,6.00
2023-04-08T19:19:25.715Z,5.90
2023-04-08T19:21:57.455Z,5.60
2023-04-08T19:24:25.044Z,5.80
2023-04-08T19:26:54.760Z,5.70
2023-04-08T19:29:23.521Z,5.30
2023-04-08T19:31:50.698Z,5.80
2023-04-08T19:34:20.495Z,5.40
2023-04-08T19:36:48.029Z,5.50
2023-04-08T19:39:15.710Z,5.40
2023-04-08T19:41:43.439Z,5.30
2023-04-08T19:44:11.072Z,5.50
2023-04-08T19:46:39.027Z,5.50
2023-04-08T19:49:06.472Z,5.10
2023-04-08T19:51:35.497Z,5.60
2023-04-08T19:55:33.543Z,5.40
2023-04-08T20:01:23.985Z,5.70
2023-04-08T20:03:52.553Z,5.70
2023-04-08T20:06:23.293Z,5.20
2023-04-08T20:08:53.354Z,5.40
2023-04-08T20:11:21.601Z,5.70
2023-04-08T20:13:54.738Z,5.80
2023-04-08T20:16:22.242Z,5.80
2023-04-08T20:18:49.698Z,5.60
2023-04-08T20:21:18.393Z,5.00
2023-04-08T20:23:45.826Z,5.50
2023-04-08T20:26:14.490Z,5.70
2023-04-08T20:28:44.917Z,5.30
2023-04-08T20:31:12.381Z,5.30
2023-04-08T20:33:45.608Z,5.50
2023-04-08T20:36:13.877Z,5.60
2023-04-08T20:38:43.787Z,5.70
2023-04-08T20:41:11.452Z,5.60
2023-04-08T20:43:39.585Z,5.60
2023-04-08T20:46:06.805Z,5.40
2023-04-08T20:48:37.077Z,5.70
2023-04-08T20:51:06.533Z,5.20
2023-04-08T20:53:38.859Z,5.60
2023-04-08T20:56:06.569Z,5.20
2023-04-08T20:58:35.239Z,5.40
2023-04-08T21:01:03.097Z,5.50
2023-04-08T21:03:36.868Z,5.10
2023-04-08T21:06:04.440Z,5.50
2023-04-08T21:08:36.100Z,5.10
2023-04-08T21:11:12.189Z,5.10
2023-04-08T21:13:39.623Z,5.40
2023-04-08T21:16:09.994Z,5.20
2023-04-08T21:18:40.994Z,5.40
2023-04-08T21:21:13.410Z,5.10
2023-04-08T21:23:43.044Z,5.30
2023-04-08T21:26:13.858Z,5.10
2023-04-08T21:28:44.146Z,5.20
2023-04-08T21:31:12.661Z,4.90
2023-04-08T21:33:42.636Z,5.00
2023-04-08T21:36:10.107Z,5.20
2023-04-08T21:38:37.346Z,5.00
2023-04-08T21:41:05.609Z,4.80
2023-04-08T21:43:32.867Z,5.30
2023-04-08T21:46:04.306Z,5.60
2023-04-08T21:48:31.617Z,4.90
2023-04-08T21:50:58.818Z,4.70
2023-04-08T21:53:26.140Z,5.50
2023-04-08T21:55:53.410Z,5.50
2023-04-08T21:58:22.918Z,5.30
2023-04-08T22:00:53.132Z,5.40
2023-04-08T22:03:20.452Z,5.50
2023-04-08T22:05:49.796Z,5.50
2023-04-08T22:08:17.418Z,4.90
2023-04-08T22:10:46.095Z,4.90
2023-04-08T22:13:14.487Z,5.10
2023-04-08T22:15:41.808Z,5.30
2023-04-08T22:18:10.169Z,5.00
2023-04-08T22:20:39.779Z,5.00
2023-04-08T22:23:07.132Z,5.00
2023-04-08T22:25:34.560Z,5.00
2023-04-08T22:28:01.748Z,4.80
2023-04-08T22:30:30.058Z,5.40
2023-04-08T22:32:57.778Z,5.10
2023-04-08T22:35:24.865Z,5.30
2023-04-08T22:37:52.057Z,5.10
2023-04-08T22:40:19.417Z,4.70
2023-04-08T22:42:46.796Z,5.30
2023-04-08T22:45:16.707Z,5.30
2023-04-08T22:47:43.924Z,5.10
2023-04-08T22:50:11.441Z,4.90
2023-04-08T22:52:38.884Z,5.10
2023-04-08T22:55:07.247Z,4.70
2023-04-08T22:57:34.948Z,5.20
2023-04-08T23:00:04.224Z,4.80
2023-04-08T23:02:31.993Z,5.10
2023-04-08T23:04:59.325Z,4.60
2023-04-08T23:07:26.481Z,5.10
2023-04-08T23:09:53.622Z,5.00
2023-04-08T23:12:20.966Z,4.80
2023-04-08T23:14:48.197Z,5.10
2023-04-08T23:17:15.590Z,4.80
2023-04-08T23:19:42.779Z,5.00
2023-04-08T23:22:10.049Z,4.70
2023-04-08T23:24:37.305Z,5.10
2023-04-08T23:27:04.485Z,4.70
2023-04-08T23:29:31.773Z,4.90
2023-04-08T23:31:59.146Z,5.00
2023-04-08T23:34:26.390Z,4.70
2023-04-08T23:36:53.573Z,4.60
2023-04-08T23:39:20.845Z,4.60
2023-04-08T23:41:48.184Z,4.70
2023-04-08T23:44:15.507Z,4.60
2023-04-08T23:46:42.749Z,4.70
2023-04-08T23:49:10.066Z,4.60
2023-04-08T23:51:38.896Z,4.70
2023-04-08T23:54:06.048Z,5.70
2023-04-08T23:56:33.331Z,4.50
2023-04-08T23:59:00.628Z,4.70
